Time;durP1;ratioP1;P1;durP2;ratioP2;P2;SDS_P1;SDS_P2;PMS_P1;PMS_P2;Temp;Humidity;BMP_temperature;BMP_pressure;BME280_temperature;BME280_humidity;BME280_pressure;Samples;Min_cycle;Max_cycle;Signal;HPM_P1;HPM_P2
2022/02/17 00:01:36;;;;;;;15.10;6.80;;;;;2.00;97044.60;;;;110803;1250;42496;-61
2022/02/17 00:04:06;;;;;;;46.90;9.40;;;;;2.00;97039.00;;;;110846;1251;41212;-60
2022/02/17 00:06:37;;;;;;;18.10;7.30;;;;;2.00;97036.40;;;;110662;1251;41463;-58
2022/02/17 00:09:06;;;;;;;38.70;8.40;;;;;2.00;97035.00;;;;110495;1253;41480;-60
2022/02/17 00:11:39;;;;;;;18.40;8.20;;;;;1.90;97029.40;;;;110457;1250;41736;-61
2022/02/17 00:14:09;;;;;;;40.80;8.80;;;;;1.90;97035.00;;;;110487;1253;41259;-62
2022/02/17 00:16:39;;;;;;;20.10;8.10;;;;;1.80;97031.80;;;;110392;1253;41143;-60
2022/02/17 00:19:10;;;;;;;15.60;7.10;;;;;1.80;97039.20;;;;110821;1250;41648;-59
2022/02/17 00:21:39;;;;;;;16.70;7.80;;;;;1.70;97047.00;;;;110546;1253;41162;-59
2022/02/17 00:24:09;;;;;;;32.80;7.70;;;;;1.70;97044.40;;;;110545;1253;41534;-59
2022/02/17 00:26:40;;;;;;;35.50;8.20;;;;;1.70;97044.60;;;;110807;1251;42026;-60
2022/02/17 00:29:09;;;;;;;20.20;8.50;;;;;1.70;97045.60;;;;110579;1251;41503;-59
2022/02/17 00:31:40;;;;;;;22.10;8.80;;;;;1.70;97043.80;;;;110439;1252;41268;-59
2022/02/17 00:34:10;;;;;;;19.40;8.70;;;;;1.68;97041.60;;;;110630;1250;41139;-58
2022/02/17 00:36:40;;;;;;;16.70;8.00;;;;;1.60;97038.60;;;;110644;1250;42665;-60
2022/02/17 00:39:09;;;;;;;32.80;9.30;;;;;1.60;97040.60;;;;110593;1251;41536;-61
2022/02/17 00:41:40;;;;;;;40.60;8.80;;;;;1.60;97043.00;;;;110654;1252;41144;-62
2022/02/17 00:44:13;;;;;;;68.40;9.80;;;;;1.60;97037.80;;;;110645;1250;41647;-61
2022/02/17 00:46:43;;;;;;;45.10;9.90;;;;;1.56;97040.80;;;;110875;1250;41751;-61
2022/02/17 00:49:13;;;;;;;56.60;11.90;;;;;1.50;97045.80;;;;110494;1253;41285;-63
2022/02/17 00:51:43;;;;;;;31.30;9.50;;;;;1.38;97051.00;;;;110786;1250;41157;-60
2022/02/17 00:54:15;;;;;;;58.20;13.20;;;;;1.30;97042.60;;;;110812;1250;41368;-59
2022/02/17 00:56:47;;;;;;;31.40;13.00;;;;;1.20;97039.00;;;;110666;1251;41126;-59
2022/02/17 00:59:17;;;;;;;29.10;11.90;;;;;1.20;97038.20;;;;110650;1252;41326;-58
2022/02/17 01:01:48;;;;;;;;;;;;;1.10;97031.80;;;;110591;1252;41259;-57
2022/02/17 01:04:19;;;;;;;30.90;11.10;;;;;1.10;97032.20;;;;110490;1253;41337;-60
2022/02/17 01:06:49;;;;;;;24.10;10.70;;;;;1.10;97030.20;;;;110739;1250;41265;-60
2022/02/17 01:09:22;;;;;;;38.20;9.10;;;;;1.00;97027.60;;;;110570;1251;41297;-60
2022/02/17 01:11:52;;;;;;;48.30;9.40;;;;;1.00;97017.20;;;;110565;1250;41702;-60
2022/02/17 01:14:22;;;;;;;17.20;7.90;;;;;0.98;97008.60;;;;110569;1250;41188;-60
2022/02/17 01:16:52;;;;;;;31.00;9.10;;;;;0.90;97013.40;;;;110702;1250;42333;-60
2022/02/17 01:19:22;;;;;;;37.20;10.10;;;;;0.94;97010.00;;;;110529;1252;41269;-61
2022/02/17 01:21:52;;;;;;;34.90;12.10;;;;;0.96;97000.00;;;;110562;1250;41597;-61
2022/02/17 01:24:22;;;;;;;42.70;12.60;;;;;0.90;96990.20;;;;110696;1252;41330;-60
2022/02/17 01:26:52;;;;;;;32.60;13.50;;;;;0.90;96978.60;;;;110822;1250;41250;-63
2022/02/17 01:29:22;;;;;;;39.00;13.50;;;;;0.90;96976.40;;;;110619;1252;41168;-60
2022/02/17 01:31:54;;;;;;;28.30;11.70;;;;;0.90;96970.60;;;;110597;1253;41163;-60
2022/02/17 01:34:25;;;;;;;66.10;12.10;;;;;0.90;96960.80;;;;110553;1253;41673;-62
2022/02/17 01:37:01;;;;;;;21.70;8.70;;;;;0.90;96954.80;;;;110787;1250;41886;-62
2022/02/17 01:39:34;;;;;;;22.50;9.20;;;;;0.90;96951.00;;;;110617;1251;41757;-61
2022/02/17 01:42:10;;;;;;;38.90;9.70;;;;;0.90;96941.60;;;;110699;1250;41262;-60
2022/02/17 01:44:47;;;;;;;104.40;10.80;;;;;1.00;96936.00;;;;110650;1250;41932;-60
2022/02/17 01:47:18;;;;;;;61.80;10.00;;;;;1.00;96926.80;;;;110584;1253;41151;-60
2022/02/17 01:49:48;;;;;;;57.90;11.40;;;;;1.00;96926.60;;;;110618;1253;41159;-60
2022/02/17 01:52:18;;;;;;;41.60;10.10;;;;;1.00;96926.20;;;;110571;1253;42084;-59
2022/02/17 01:54:51;;;;;;;28.80;10.10;;;;;1.00;96919.40;;;;110608;1251;42105;-58
2022/02/17 01:57:25;;;;;;;31.20;11.90;;;;;1.00;96922.60;;;;110561;1253;41168;-60
2022/02/17 01:59:58;;;;;;;39.60;10.80;;;;;1.00;96916.00;;;;110695;1250;41262;-58
2022/02/17 02:02:46;;;;;;;52.00;9.60;;;;;1.00;96913.40;;;;110671;1250;41719;-58
2022/02/17 02:05:24;;;;;;;21.40;8.40;;;;;1.02;96904.60;;;;110621;1251;41928;-59
2022/02/17 02:07:54;;;;;;;24.30;9.00;;;;;1.02;96900.00;;;;110529;1253;41619;-57
2022/02/17 02:10:28;;;;;;;31.90;9.90;;;;;1.02;96905.00;;;;110536;1250;41261;-57
2022/02/17 02:13:00;;;;;;;29.20;9.40;;;;;1.00;96895.40;;;;110763;1250;41611;-60
2022/02/17 02:15:52;;;;;;;60.10;10.30;;;;;1.00;96893.60;;;;110793;1250;41154;-59
2022/02/17 02:18:23;;;;;;;24.10;9.20;;;;;1.00;96886.00;;;;110461;1252;41151;-59
2022/02/17 02:20:56;;;;;;;32.10;10.00;;;;;1.00;96884.40;;;;110838;1250;41554;-58
2022/02/17 02:23:38;;;;;;;29.90;9.70;;;;;1.00;96883.60;;;;110563;1252;41345;-59
2022/02/17 02:26:10;;;;;;;45.80;10.00;;;;;0.96;96880.40;;;;110651;1251;41140;-59
2022/02/17 02:28:40;;;;;;;35.20;10.50;;;;;0.90;96880.80;;;;110455;1251;41255;-56
2022/02/17 02:31:10;;;;;;;40.00;10.10;;;;;0.90;96877.00;;;;110577;1253;41157;-58
2022/02/17 02:33:42;;;;;;;36.50;9.10;;;;;0.80;96877.80;;;;110623;1251;41947;-59
2022/02/17 02:36:12;;;;;;;55.80;8.40;;;;;0.80;96873.40;;;;110544;1253;42234;-62
2022/02/17 02:38:59;;;;;;;24.90;7.40;;;;;0.70;96871.40;;;;110805;1250;41281;-59
2022/02/17 02:41:40;;;;;;;37.80;8.00;;;;;0.70;96861.00;;;;110484;1253;41160;-59
2022/02/17 02:44:11;;;;;;;30.50;8.10;;;;;0.60;96858.80;;;;110360;1253;311780;-61
2022/02/17 02:46:47;;;;;;;12.70;6.40;;;;;0.58;96864.20;;;;110687;1250;41262;-62
2022/02/17 02:49:17;;;;;;;17.20;6.80;;;;;0.50;96861.40;;;;110547;1251;41892;-61
2022/02/17 02:51:48;;;;;;;47.90;8.50;;;;;0.50;96861.60;;;;110476;1252;41194;-61
2022/02/17 02:54:21;;;;;;;27.20;7.00;;;;;0.50;96863.40;;;;110623;1251;41629;-61
2022/02/17 02:56:51;;;;;;;22.40;7.00;;;;;0.40;96863.80;;;;110414;1252;41178;-63
2022/02/17 02:59:22;;;;;;;46.80;8.20;;;;;0.40;96873.20;;;;110632;1252;41146;-62
2022/02/17 03:01:52;;;;;;;29.90;7.60;;;;;0.40;96870.20;;;;110583;1253;41136;-61
2022/02/17 03:04:23;;;;;;;43.20;7.40;;;;;0.30;96865.00;;;;110637;1250;41954;-62
2022/02/17 03:06:54;;;;;;;19.30;6.90;;;;;0.30;96865.00;;;;110784;1249;41569;-59
2022/02/17 03:09:23;;;;;;;15.70;6.90;;;;;0.30;96863.00;;;;110626;1250;41956;-58
2022/02/17 03:11:53;;;;;;;15.90;7.60;;;;;0.30;96860.20;;;;110547;1252;41387;-58
2022/02/17 03:14:23;;;;;;;21.20;8.00;;;;;0.30;96861.20;;;;110469;1253;41859;-60
2022/02/17 03:16:54;;;;;;;17.70;8.10;;;;;0.30;96858.20;;;;110517;1253;41595;-59
2022/02/17 03:19:25;;;;;;;18.70;7.70;;;;;0.30;96865.00;;;;110563;1250;41274;-59
2022/02/17 03:21:55;;;;;;;21.20;8.40;;;;;0.30;96858.60;;;;110437;1253;42347;-60
2022/02/17 03:24:26;;;;;;;22.80;9.10;;;;;0.30;96859.20;;;;110649;1250;41568;-61
2022/02/17 03:26:58;;;;;;;20.80;8.70;;;;;0.30;96856.40;;;;110533;1253;41162;-59
2022/02/17 03:29:28;;;;;;;23.90;8.90;;;;;0.30;96852.80;;;;110687;1251;41159;-57
2022/02/17 03:32:02;;;;;;;19.70;8.70;;;;;0.30;96847.60;;;;110509;1253;41168;-62
2022/02/17 03:34:32;;;;;;;35.10;8.60;;;;;0.30;96844.40;;;;110414;1253;41533;-61
2022/02/17 03:37:02;;;;;;;25.50;8.30;;;;;0.30;96842.20;;;;110560;1253;41856;-59
2022/02/17 03:39:34;;;;;;;33.50;9.10;;;;;0.30;96844.20;;;;110540;1253;41670;-57
2022/02/17 03:42:08;;;;;;;39.10;9.10;;;;;0.30;96845.80;;;;110532;1253;41480;-59
2022/02/17 03:44:38;;;;;;;29.20;9.30;;;;;0.20;96843.60;;;;110460;1253;41751;-62
2022/02/17 03:47:17;;;;;;;41.60;8.50;;;;;0.10;96843.60;;;;110517;1251;41600;-63
2022/02/17 03:50:01;;;;;;;22.90;7.80;;;;;0.00;96837.60;;;;110622;1253;41470;-58
2022/02/17 03:52:34;;;;;;;20.30;7.60;;;;;-0.04;96827.60;;;;110752;1250;41397;-60
2022/02/17 03:55:22;;;;;;;32.70;7.90;;;;;0.00;96828.60;;;;110738;1251;41251;-57
2022/02/17 03:57:52;;;;;;;22.50;8.80;;;;;0.00;96819.40;;;;110549;1252;41170;-59
2022/02/17 04:00:27;;;;;;;34.00;9.60;;;;;0.00;96811.40;;;;110564;1253;41398;-62
2022/02/17 04:03:02;;;;;;;28.30;10.80;;;;;0.00;96802.20;;;;110558;1253;41177;-61
2022/02/17 04:05:39;;;;;;;25.30;11.20;;;;;0.00;96790.40;;;;110734;1250;42833;-60
2022/02/17 04:08:11;;;;;;;24.20;10.60;;;;;0.10;96779.00;;;;110369;1253;41625;-63
2022/02/17 04:10:57;;;;;;;26.10;11.60;;;;;0.10;96769.60;;;;110499;1253;42399;-68
2022/02/17 04:13:39;;;;;;;31.60;10.60;;;;;0.10;96765.80;;;;110369;1252;41256;-59
2022/02/17 04:16:13;;;;;;;32.00;10.30;;;;;0.10;96759.00;;;;110631;1253;41278;-61
2022/02/17 04:18:55;;;;;;;21.10;9.90;;;;;0.20;96748.40;;;;110671;1250;41907;-60
2022/02/17 04:21:49;;;;;;;24.40;9.60;;;;;0.20;96750.80;;;;110485;1250;41455;-61
2022/02/17 04:24:48;;;;;;;35.30;9.80;;;;;0.20;96749.80;;;;110627;1250;41139;-66
2022/02/17 04:27:26;;;;;;;60.50;9.50;;;;;0.20;96746.60;;;;110492;1253;41247;-62
2022/02/17 04:30:13;;;;;;;38.10;10.30;;;;;0.28;96741.80;;;;110348;1253;41609;-62
2022/02/17 04:32:45;;;;;;;22.90;10.10;;;;;0.30;96749.60;;;;110451;1253;41476;-63
2022/02/17 04:35:42;;;;;;;34.60;11.30;;;;;0.30;96745.60;;;;110866;1252;41292;-62
2022/02/17 04:38:23;;;;;;;26.30;11.20;;;;;0.30;96745.20;;;;110442;1253;41363;-62
2022/02/17 04:43:51;;;;;;;22.40;9.50;;;;;0.34;96736.80;;;;110552;1253;41133;-62
2022/02/17 04:46:26;;;;;;;20.50;9.10;;;;;0.40;96733.00;;;;110393;1253;41754;-61
2022/02/17 04:48:59;;;;;;;21.70;7.70;;;;;0.40;96719.00;;;;110622;1252;41343;-59
2022/02/17 04:51:31;;;;;;;22.60;8.20;;;;;0.40;96710.60;;;;110474;1250;42765;-62
2022/02/17 04:54:06;;;;;;;19.90;8.30;;;;;0.48;96700.00;;;;110508;1252;41217;-61
2022/02/17 04:57:00;;;;;;;19.90;8.20;;;;;0.50;96699.60;;;;110743;1251;41258;-64
2022/02/17 04:59:54;;;;;;;21.90;10.10;;;;;0.60;96689.60;;;;110493;1253;41228;-62
2022/02/17 05:02:31;;;;;;;25.00;10.60;;;;;0.68;96694.80;;;;110339;1254;41154;-65
2022/02/17 05:05:32;;;;;;;22.00;9.90;;;;;0.70;96682.60;;;;110708;1250;41657;-60
2022/02/17 05:08:08;;;;;;;21.90;10.70;;;;;0.80;96679.20;;;;110498;1252;41278;-68
2022/02/17 05:10:46;;;;;;;23.10;10.80;;;;;0.80;96684.40;;;;110353;1253;41583;-61
2022/02/17 05:13:21;;;;;;;26.40;11.10;;;;;0.82;96668.40;;;;110675;1251;41159;-63
2022/02/17 05:15:56;;;;;;;25.80;11.30;;;;;0.90;96663.20;;;;110321;1253;41149;-63
2022/02/17 05:18:29;;;;;;;25.30;10.60;;;;;0.90;96670.60;;;;110375;1250;41276;-62
2022/02/17 05:21:04;;;;;;;22.60;9.80;;;;;1.00;96671.80;;;;110696;1251;41623;-63
2022/02/17 05:24:04;;;;;;;41.40;16.60;;;;;1.00;96668.00;;;;110732;1253;41282;-66
2022/02/17 05:27:01;;;;;;;54.10;23.10;;;;;1.10;96672.20;;;;110510;1253;41281;-61
2022/02/17 05:29:48;;;;;;;44.70;19.70;;;;;1.10;96675.60;;;;110644;1251;41182;-62
2022/02/17 05:32:21;;;;;;;39.30;16.90;;;;;1.02;96673.80;;;;110449;1253;41145;-63
2022/02/17 05:35:24;;;;;;;33.90;15.80;;;;;1.00;96677.00;;;;110306;1253;41547;-63
2022/02/17 05:38:15;;;;;;;36.80;16.20;;;;;1.10;96665.80;;;;110594;1251;41521;-61
2022/02/17 05:41:16;;;;;;;33.10;14.80;;;;;1.10;96675.40;;;;110428;1253;41502;-62
2022/02/17 05:43:51;;;;;;;36.90;14.30;;;;;1.18;96688.60;;;;110475;1250;41143;-62
2022/02/17 05:46:24;;;;;;;32.50;13.20;;;;;1.20;96691.00;;;;110555;1251;41845;-61
2022/02/17 05:48:56;;;;;;;27.00;10.80;;;;;1.28;96684.60;;;;110560;1251;41234;-62
2022/02/17 05:51:33;;;;;;;22.70;9.50;;;;;1.30;96682.20;;;;110431;1251;41219;-63
2022/02/17 05:54:06;;;;;;;25.30;10.90;;;;;1.40;96683.40;;;;110566;1251;41146;-63
2022/02/17 05:56:40;;;;;;;45.90;12.60;;;;;1.50;96682.60;;;;110605;1253;41513;-62
2022/02/17 05:59:21;;;;;;;26.10;11.60;;;;;1.62;96678.40;;;;110475;1253;41429;-62
2022/02/17 06:01:52;;;;;;;29.10;14.00;;;;;1.74;96675.40;;;;110411;1253;41290;-60
2022/02/17 06:04:21;;;;;;;32.20;12.90;;;;;1.90;96663.40;;;;110743;1251;42392;-60
2022/02/17 06:06:52;;;;;;;25.00;12.20;;;;;1.94;96655.80;;;;110669;1251;41156;-59
2022/02/17 06:09:21;;;;;;;25.80;11.50;;;;;2.00;96657.20;;;;110642;1252;41427;-60
2022/02/17 06:11:53;;;;;;;23.40;10.90;;;;;2.10;96661.80;;;;110638;1251;41150;-57
2022/02/17 06:14:22;;;;;;;23.40;10.00;;;;;2.10;96669.00;;;;110509;1253;41718;-60
2022/02/17 06:16:51;;;;;;;21.40;8.40;;;;;2.20;96659.60;;;;110522;1252;41265;-60
2022/02/17 06:19:20;;;;;;;20.20;9.20;;;;;2.20;96660.00;;;;110487;1253;41337;-61
2022/02/17 06:21:49;;;;;;;16.60;8.30;;;;;2.30;96653.80;;;;110644;1251;41176;-60
2022/02/17 06:24:19;;;;;;;22.00;10.60;;;;;2.40;96652.40;;;;110704;1252;41632;-62
2022/02/17 06:26:48;;;;;;;19.00;8.60;;;;;2.50;96654.40;;;;110526;1253;41623;-60
2022/02/17 06:29:18;;;;;;;17.70;8.00;;;;;2.60;96654.40;;;;110439;1253;42323;-60
2022/02/17 06:31:47;;;;;;;22.00;10.50;;;;;2.78;96654.20;;;;110667;1250;42345;-60
2022/02/17 06:34:17;;;;;;;22.50;10.60;;;;;2.90;96646.60;;;;110451;1253;41153;-60
2022/02/17 06:36:48;;;;;;;25.10;11.30;;;;;3.06;96646.40;;;;110718;1250;41011;-58
2022/02/17 06:39:17;;;;;;;23.50;10.70;;;;;3.22;96651.00;;;;110732;1247;41171;-61
2022/02/17 06:41:46;;;;;;;26.10;12.10;;;;;3.40;96644.40;;;;110648;1252;41260;-61
2022/02/17 06:44:16;;;;;;;43.60;11.70;;;;;3.68;96639.80;;;;110546;1253;41150;-60
2022/02/17 06:46:46;;;;;;;24.50;11.00;;;;;3.80;96631.40;;;;110538;1253;42479;-60
2022/02/17 06:49:15;;;;;;;28.00;12.00;;;;;3.94;96627.60;;;;110784;1250;41146;-60
2022/02/17 06:51:44;;;;;;;39.90;19.40;;;;;4.02;96634.00;;;;110478;1253;42748;-61
2022/02/17 06:54:13;;;;;;;31.70;15.20;;;;;4.00;96636.40;;;;110701;1251;41308;-62
2022/02/17 06:56:43;;;;;;;31.80;14.90;;;;;4.00;96629.60;;;;110568;1253;41182;-58
2022/02/17 06:59:13;;;;;;;33.20;14.40;;;;;4.20;96622.40;;;;110571;1251;41289;-59
2022/02/17 07:01:42;;;;;;;27.70;13.90;;;;;4.40;96618.40;;;;110451;1253;42231;-60
2022/02/17 07:04:12;;;;;;;32.30;14.60;;;;;4.50;96616.40;;;;110539;1253;41270;-61
2022/02/17 07:06:42;;;;;;;32.10;15.70;;;;;4.68;96601.60;;;;110492;1250;41637;-61
2022/02/17 07:09:12;;;;;;;32.60;15.40;;;;;4.70;96595.20;;;;110711;1250;41297;-60
2022/02/17 07:11:41;;;;;;;36.50;17.20;;;;;4.80;96596.20;;;;110532;1253;42450;-59
2022/02/17 07:14:11;;;;;;;36.50;17.20;;;;;4.92;96592.00;;;;110601;1252;41248;-60
2022/02/17 07:16:40;;;;;;;27.80;12.50;;;;;5.30;96587.60;;;;110749;1250;41526;-61
2022/02/17 07:19:09;;;;;;;27.40;11.50;;;;;5.60;96579.20;;;;110673;1251;41615;-60
2022/02/17 07:21:39;;;;;;;25.10;11.00;;;;;6.00;96568.20;;;;110661;1250;41146;-58
2022/02/17 07:24:10;;;;;;;;;;;;;6.20;96559.40;;;;110675;1252;41292;-60
2022/02/17 07:26:39;;;;;;;26.50;12.60;;;;;6.40;96545.20;;;;110680;1252;41149;-61
2022/02/17 07:29:09;;;;;;;26.20;11.50;;;;;6.54;96541.80;;;;110723;1252;41322;-60
2022/02/17 07:31:38;;;;;;;27.20;11.60;;;;;6.60;96532.80;;;;110602;1253;41149;-61
2022/02/17 07:34:08;;;;;;;32.20;12.50;;;;;6.70;96526.40;;;;110590;1251;41303;-59
2022/02/17 07:36:38;;;;;;;28.50;13.10;;;;;6.76;96534.00;;;;110710;1251;41118;-57
2022/02/17 07:39:07;;;;;;;22.10;11.30;;;;;6.80;96523.20;;;;110743;1250;41637;-58
2022/02/17 07:41:37;;;;;;;23.20;10.70;;;;;7.00;96514.00;;;;110682;1250;41267;-59
2022/02/17 07:44:08;;;;;;;23.90;10.20;;;;;7.20;96508.00;;;;110742;1251;41267;-59
2022/02/17 07:46:38;;;;;;;21.30;10.50;;;;;7.40;96502.20;;;;110655;1250;41770;-57
2022/02/17 07:49:08;;;;;;;19.80;9.10;;;;;7.60;96500.60;;;;110839;1250;41411;-59
2022/02/17 07:51:38;;;;;;;16.20;7.90;;;;;7.90;96505.20;;;;110564;1252;41623;-60
2022/02/17 07:54:07;;;;;;;15.20;6.90;;;;;8.20;96507.40;;;;110720;1250;41316;-60
2022/02/17 07:56:37;;;;;;;14.70;6.40;;;;;8.60;96503.80;;;;110723;1249;42406;-61
2022/02/17 07:59:07;;;;;;;15.90;6.70;;;;;9.00;96507.60;;;;110705;1250;41562;-59
2022/02/17 08:01:38;;;;;;;14.90;6.90;;;;;9.40;96511.80;;;;110678;1250;41151;-60
2022/02/17 08:04:08;;;;;;;16.30;7.00;;;;;9.68;96501.00;;;;110573;1253;42384;-60
2022/02/17 08:06:38;;;;;;;14.50;6.40;;;;;9.70;96507.40;;;;110686;1250;41146;-59
2022/02/17 08:09:07;;;;;;;13.00;6.00;;;;;9.88;96507.80;;;;110480;1253;41727;-59
2022/02/17 08:11:37;;;;;;;12.50;5.90;;;;;9.80;96506.40;;;;110703;1250;41147;-59
2022/02/17 08:14:06;;;;;;;14.30;6.30;;;;;9.70;96501.20;;;;110495;1253;41732;-60
2022/02/17 08:16:36;;;;;;;13.90;6.10;;;;;9.60;96499.00;;;;110754;1250;41146;-61
2022/02/17 08:19:07;;;;;;;;;;;;;9.64;96497.20;;;;110691;1250;42115;-60
2022/02/17 08:21:45;;;;;;;15.10;6.50;;;;;9.58;96502.00;;;;110641;1251;42331;-60
2022/02/17 08:24:15;;;;;;;13.20;5.90;;;;;9.78;96502.80;;;;110562;1253;41284;-61
2022/02/17 08:26:44;;;;;;;20.10;8.80;;;;;10.20;96492.60;;;;110540;1250;42546;-61
2022/02/17 08:29:13;;;;;;;20.20;9.60;;;;;10.76;96491.40;;;;110688;1250;41157;-61
2022/02/17 08:31:49;;;;;;;34.90;18.40;;;;;11.14;96484.00;;;;110793;1250;41185;-62
2022/02/17 08:34:19;;;;;;;34.40;17.10;;;;;11.16;96473.80;;;;110662;1251;41601;-61
2022/02/17 08:36:48;;;;;;;28.40;14.90;;;;;11.16;96470.60;;;;110519;1251;41735;-58
2022/02/17 08:39:19;;;;;;;27.00;13.20;;;;;10.88;96471.00;;;;110717;1250;41255;-58
2022/02/17 08:41:48;;;;;;;25.50;13.60;;;;;10.60;96460.80;;;;110707;1252;41143;-59
2022/02/17 08:44:17;;;;;;;22.80;11.50;;;;;9.98;96459.00;;;;110554;1253;41554;-57
2022/02/17 08:46:48;;;;;;;22.50;11.30;;;;;9.80;96458.80;;;;110817;1252;41183;-58
2022/02/17 08:49:17;;;;;;;20.50;10.50;;;;;9.98;96454.80;;;;110706;1251;41127;-59
2022/02/17 08:51:46;;;;;;;18.60;9.40;;;;;9.90;96460.40;;;;110738;1252;42406;-57
2022/02/17 08:54:16;;;;;;;54.90;24.90;;;;;10.02;96447.40;;;;110787;1250;41152;-58
2022/02/17 08:56:46;;;;;;;190.50;77.10;;;;;10.48;96432.40;;;;110535;1253;41159;-58
2022/02/17 08:59:17;;;;;;;33.60;16.20;;;;;10.82;96424.20;;;;110493;1253;41925;-58
2022/02/17 09:01:55;;;;;;;118.20;51.70;;;;;11.74;96424.00;;;;110613;1250;41613;-58
2022/02/17 09:04:27;;;;;;;43.30;19.40;;;;;12.42;96421.00;;;;110745;1250;41252;-57
2022/02/17 09:06:57;;;;;;;21.50;9.60;;;;;12.40;96418.80;;;;110734;1250;41954;-59
2022/02/17 09:09:27;;;;;;;36.20;14.10;;;;;12.00;96414.20;;;;110541;1252;41905;-58
2022/02/17 09:11:56;;;;;;;15.00;7.10;;;;;11.76;96412.20;;;;110679;1252;41258;-60
2022/02/17 09:14:25;;;;;;;16.30;7.60;;;;;11.34;96418.20;;;;110850;1250;40744;-59
2022/02/17 09:16:55;;;;;;;18.10;8.20;;;;;11.36;96413.60;;;;110704;1251;41260;-58
2022/02/17 09:19:25;;;;;;;17.50;8.20;;;;;11.20;96407.60;;;;110692;1250;41139;-59
2022/02/17 09:21:56;;;;;;;28.10;11.80;;;;;10.64;96412.80;;;;110658;1252;41155;-59
2022/02/17 09:24:25;;;;;;;19.60;9.40;;;;;10.82;96413.40;;;;110807;1250;41158;-59
2022/02/17 09:26:58;;;;;;;20.20;8.40;;;;;10.24;96415.80;;;;110616;1253;41139;-59
2022/02/17 09:29:27;;;;;;;18.60;7.80;;;;;10.42;96411.40;;;;110721;1251;41251;-60
2022/02/17 09:32:16;;;;;;;17.00;6.60;;;;;10.18;96405.00;;;;110700;1251;41667;-59
2022/02/17 09:34:47;;;;;;;23.40;11.40;;;;;10.06;96386.80;;;;110709;1250;41510;-58
2022/02/17 09:37:18;;;;;;;17.10;8.10;;;;;10.10;96385.00;;;;110763;1250;41907;-58
2022/02/17 09:39:47;;;;;;;12.80;6.10;;;;;10.10;96370.40;;;;110707;1250;41367;-57
2022/02/17 09:42:18;;;;;;;12.80;5.70;;;;;10.10;96366.20;;;;110689;1252;41176;-58
2022/02/17 09:44:47;;;;;;;15.90;6.30;;;;;10.20;96348.20;;;;110541;1250;42348;-57
2022/02/17 09:47:18;;;;;;;15.70;7.20;;;;;10.36;96328.20;;;;110518;1250;41153;-56
2022/02/17 09:49:55;;;;;;;17.40;7.50;;;;;10.58;96338.20;;;;110803;1250;42033;-59
2022/02/17 09:52:34;;;;;;;16.40;7.10;;;;;10.42;96335.60;;;;110769;1250;41168;-59
2022/02/17 09:55:06;;;;;;;14.90;6.40;;;;;10.30;96326.60;;;;110527;1253;42547;-59
2022/02/17 09:57:37;;;;;;;11.90;5.90;;;;;10.10;96326.80;;;;110552;1253;41157;-59
2022/02/17 10:00:10;;;;;;;14.80;6.60;;;;;9.68;96325.20;;;;110816;1250;41614;-60
2022/02/17 10:02:51;;;;;;;13.10;6.00;;;;;9.70;96320.20;;;;110447;1253;41273;-63
2022/02/17 10:05:27;;;;;;;15.60;6.60;;;;;9.48;96315.60;;;;110467;1252;41620;-60
2022/02/17 10:08:01;;;;;;;13.80;6.30;;;;;9.06;96316.40;;;;110582;1253;41158;-64
2022/02/17 10:10:44;;;;;;;14.30;7.10;;;;;9.10;96310.60;;;;110556;1254;41411;-59
2022/02/17 10:13:24;;;;;;;13.90;6.30;;;;;8.62;96320.60;;;;110528;1252;41464;-59
2022/02/17 10:16:00;;;;;;;13.00;5.80;;;;;8.78;96303.40;;;;110408;1253;41152;-59
2022/02/17 10:18:44;;;;;;;11.90;5.30;;;;;8.70;96304.60;;;;110392;1250;41179;-60
2022/02/17 10:21:19;;;;;;;13.00;5.40;;;;;8.80;96288.80;;;;110456;1253;41242;-62
2022/02/17 10:23:55;;;;;;;14.90;6.90;;;;;8.60;96292.80;;;;110462;1252;41195;-62
2022/02/17 10:26:30;;;;;;;12.40;5.40;;;;;8.62;96289.40;;;;110509;1253;41949;-59
2022/02/17 10:29:06;;;;;;;11.60;5.10;;;;;8.80;96276.20;;;;110703;1250;41157;-59
2022/02/17 10:31:40;;;;;;;12.40;4.90;;;;;8.90;96252.00;;;;110523;1253;41515;-60
2022/02/17 10:34:20;;;;;;;16.60;6.90;;;;;9.00;96248.00;;;;110548;1253;41273;-61
2022/02/17 10:37:00;;;;;;;15.90;6.40;;;;;9.14;96234.80;;;;110607;1250;41148;-59
2022/02/17 10:39:37;;;;;;;13.50;5.80;;;;;9.18;96230.60;;;;110400;1253;41212;-59
2022/02/17 10:42:09;;;;;;;13.20;5.50;;;;;9.20;96217.60;;;;110540;1251;41257;-60
2022/02/17 10:44:46;;;;;;;14.70;5.50;;;;;9.30;96218.80;;;;110576;1250;41158;-61
2022/02/17 10:47:28;;;;;;;11.90;5.20;;;;;9.22;96207.80;;;;110567;1253;41879;-62
2022/02/17 10:50:07;;;;;;;15.30;5.10;;;;;9.20;96194.00;;;;110390;1253;42093;-64
2022/02/17 10:52:44;;;;;;;11.80;5.40;;;;;9.30;96188.00;;;;110645;1253;41174;-60
2022/02/17 10:55:20;;;;;;;11.10;5.40;;;;;9.40;96173.00;;;;110852;1251;41713;-61
2022/02/17 10:57:51;;;;;;;13.40;5.80;;;;;9.50;96166.80;;;;110605;1253;41591;-59
2022/02/17 11:00:28;;;;;;;12.50;5.70;;;;;9.50;96161.60;;;;110459;1253;41203;-61
2022/02/17 11:03:02;;;;;;;12.90;5.10;;;;;9.54;96147.00;;;;110436;1250;41182;-60
2022/02/17 11:05:43;;;;;;;10.60;4.60;;;;;9.58;96133.60;;;;110556;1253;41186;-59
2022/02/17 11:08:14;;;;;;;14.40;5.80;;;;;9.50;96123.80;;;;110617;1253;41153;-60
2022/02/17 11:10:54;;;;;;;13.30;5.50;;;;;9.58;96113.60;;;;110296;1254;41204;-61
2022/02/17 11:13:33;;;;;;;14.50;5.10;;;;;9.50;96086.20;;;;110502;1253;41195;-58
2022/02/17 11:16:15;;;;;;;14.00;5.50;;;;;9.56;96074.40;;;;110394;1253;41614;-63
2022/02/17 11:18:48;;;;;;;11.30;4.70;;;;;9.60;96075.00;;;;110616;1253;42018;-60
2022/02/17 11:21:20;;;;;;;11.90;4.90;;;;;9.72;96077.80;;;;110627;1253;42089;-59
2022/02/17 11:24:03;;;;;;;10.10;4.70;;;;;10.20;96063.00;;;;110379;1253;41740;-60
2022/02/17 11:26:35;;;;;;;11.50;4.20;;;;;10.52;96059.00;;;;110527;1253;41734;-63
2022/02/17 11:29:30;;;;;;;10.10;3.90;;;;;10.64;96055.60;;;;110642;1253;41745;-60
2022/02/17 11:32:03;;;;;;;10.30;4.40;;;;;10.70;96056.20;;;;110748;1251;41288;-60
2022/02/17 11:34:36;;;;;;;8.50;3.40;;;;;10.76;96054.20;;;;110586;1253;41799;-59
2022/02/17 11:37:30;;;;;;;9.70;4.00;;;;;10.90;96055.40;;;;110642;1251;41134;-62
2022/02/17 11:40:07;;;;;;;8.70;3.70;;;;;11.20;96014.00;;;;110476;1252;41387;-60
2022/02/17 11:42:45;;;;;;;8.40;3.50;;;;;14.26;95980.80;;;;110709;1253;41309;-63
2022/02/17 11:45:30;;;;;;;8.50;3.50;;;;;17.08;95944.00;;;;110506;1253;41892;-60
2022/02/17 11:48:08;;;;;;;9.20;3.80;;;;;19.44;95924.40;;;;110416;1253;41166;-60
2022/02/17 11:50:51;;;;;;;8.60;3.40;;;;;21.70;95920.60;;;;110613;1253;41658;-61
2022/02/17 11:53:32;;;;;;;8.60;3.50;;;;;19.18;95914.80;;;;110549;1253;41650;-61
2022/02/17 11:56:07;;;;;;;9.40;3.40;;;;;19.46;95924.80;;;;110801;1250;41696;-61
2022/02/17 11:58:52;;;;;;;9.00;3.50;;;;;20.06;95917.00;;;;110645;1253;41492;-60
2022/02/17 12:01:37;;;;;;;8.00;3.70;;;;;19.44;95890.80;;;;110629;1250;41156;-63
2022/02/17 12:04:29;;;;;;;9.70;3.90;;;;;21.32;95877.60;;;;110479;1253;41157;-60
2022/02/17 12:07:27;;;;;;;9.40;3.40;;;;;21.94;95887.80;;;;110382;1250;41617;-60
2022/02/17 12:09:57;;;;;;;9.50;3.70;;;;;19.46;95902.20;;;;110888;1250;41256;-61
2022/02/17 12:12:38;;;;;;;8.40;3.30;;;;;17.38;95912.80;;;;110349;1254;41273;-62
2022/02/17 12:15:17;;;;;;;7.60;3.30;;;;;15.10;95922.00;;;;110597;1252;41171;-61
2022/02/17 12:17:50;;;;;;;7.90;3.00;;;;;14.28;95892.20;;;;110275;1250;41649;-61
2022/02/17 12:20:30;;;;;;;10.70;3.50;;;;;14.18;95893.40;;;;110623;1253;41197;-60
2022/02/17 12:23:09;;;;;;;10.40;3.80;;;;;13.88;95885.60;;;;110611;1253;41159;-62
2022/02/17 12:25:45;;;;;;;9.20;3.10;;;;;13.40;95891.60;;;;110382;1250;41168;-60
2022/02/17 12:28:16;;;;;;;8.10;3.20;;;;;13.92;95857.80;;;;110670;1253;41614;-61
2022/02/17 12:30:59;;;;;;;8.90;3.20;;;;;14.40;95868.00;;;;110467;1253;42999;-59
2022/02/17 12:33:44;;;;;;;9.20;3.30;;;;;13.70;95866.00;;;;110629;1253;41144;-60
2022/02/17 12:36:15;;;;;;;10.90;4.10;;;;;13.38;95866.20;;;;110341;1253;41266;-60
2022/02/17 12:39:16;;;;;;;8.60;3.40;;;;;13.16;95867.20;;;;110617;1250;41376;-60
2022/02/17 12:42:05;;;;;;;10.40;3.90;;;;;12.82;95861.60;;;;110614;1253;41260;-63